createdAt,value
2018-12-31T00:00:28.731Z,5.83
2018-12-31T00:02:58.113Z,6.80
2018-12-31T00:05:27.473Z,6.77
2018-12-31T00:07:56.762Z,5.60
2018-12-31T00:10:26.049Z,5.70
2018-12-31T00:12:55.249Z,7.27
2018-12-31T00:15:24.690Z,5.97
2018-12-31T00:17:53.986Z,7.20
2018-12-31T00:20:23.319Z,6.63
2018-12-31T00:22:52.667Z,6.43
2018-12-31T00:25:23.764Z,6.80
2018-12-31T00:27:53.010Z,6.83
2018-12-31T00:30:22.405Z,7.77
2018-12-31T00:32:51.737Z,7.53
2018-12-31T00:35:21.039Z,7.60
2018-12-31T00:37:50.487Z,7.47
2018-12-31T00:40:19.761Z,7.30
2018-12-31T00:42:49.073Z,7.23
2018-12-31T00:45:18.353Z,7.00
2018-12-31T00:47:47.648Z,6.57
2018-12-31T00:50:17.097Z,7.23
2018-12-31T00:52:46.407Z,7.17
2018-12-31T00:55:16.747Z,7.80
2018-12-31T00:57:46.164Z,7.60
2018-12-31T01:00:15.484Z,7.17
2018-12-31T01:02:44.853Z,6.73
2018-12-31T01:05:14.226Z,7.47
2018-12-31T01:07:43.501Z,6.67
2018-12-31T01:10:13.064Z,7.17
2018-12-31T01:12:42.322Z,6.97
2018-12-31T01:15:11.665Z,7.20
2018-12-31T01:17:40.961Z,6.70
2018-12-31T01:20:10.273Z,6.13
2018-12-31T01:22:39.580Z,6.83
2018-12-31T01:25:08.858Z,6.40
2018-12-31T01:27:38.139Z,6.57
2018-12-31T01:30:07.970Z,6.43
2018-12-31T01:32:37.292Z,6.60
2018-12-31T01:35:06.812Z,5.77
2018-12-31T01:37:36.118Z,5.60
2018-12-31T01:40:05.760Z,6.80
2018-12-31T01:42:35.071Z,6.13
2018-12-31T01:45:04.584Z,7.07
2018-12-31T01:47:33.908Z,6.43
2018-12-31T01:50:03.155Z,5.77
2018-12-31T01:52:32.529Z,5.67
2018-12-31T01:55:01.804Z,6.33
2018-12-31T01:57:31.154Z,5.90
2018-12-31T02:00:00.606Z,5.60
2018-12-31T02:02:29.906Z,6.30
2018-12-31T02:04:59.101Z,7.40
2018-12-31T02:07:28.435Z,6.90
2018-12-31T02:09:57.796Z,6.57
2018-12-31T02:12:27.063Z,5.50
2018-12-31T02:14:56.343Z,5.90
2018-12-31T02:17:25.673Z,5.53
2018-12-31T02:19:55.128Z,5.57
2018-12-31T02:22:24.364Z,6.30
2018-12-31T02:24:53.672Z,6.50
2018-12-31T02:27:22.917Z,5.60
2018-12-31T02:29:52.190Z,6.07
2018-12-31T02:32:21.490Z,6.07
2018-12-31T02:34:50.755Z,6.80
2018-12-31T02:37:20.129Z,6.83
2018-12-31T02:39:49.429Z,7.17
2018-12-31T02:42:18.681Z,6.90
2018-12-31T02:44:49.027Z,7.13
2018-12-31T02:47:18.406Z,7.57
2018-12-31T02:49:47.914Z,8.70
2018-12-31T02:52:17.179Z,7.60
2018-12-31T02:54:46.436Z,8.33
2018-12-31T02:57:15.706Z,8.97
2018-12-31T02:59:44.947Z,9.50
2018-12-31T03:02:14.319Z,9.37
2018-12-31T03:04:43.572Z,10.17
2018-12-31T03:07:12.876Z,10.10
2018-12-31T03:09:42.128Z,10.60
2018-12-31T03:12:11.446Z,9.70
2018-12-31T03:14:40.706Z,11.73
2018-12-31T03:17:09.948Z,9.87
2018-12-31T03:19:39.158Z,10.80
2018-12-31T03:22:08.425Z,11.30
2018-12-31T03:24:37.646Z,9.83
2018-12-31T03:27:06.877Z,10.40
2018-12-31T03:29:36.065Z,11.83
2018-12-31T03:32:05.327Z,12.17
2018-12-31T03:34:34.646Z,12.17
2018-12-31T03:37:03.995Z,11.67
2018-12-31T03:39:33.323Z,12.10
2018-12-31T03:42:02.575Z,13.20
2018-12-31T03:44:31.859Z,15.27
2018-12-31T03:47:01.213Z,15.53
2018-12-31T03:49:30.511Z,15.83
2018-12-31T03:51:59.749Z,14.20
2018-12-31T03:54:28.985Z,13.80
2018-12-31T03:56:58.237Z,16.30
2018-12-31T03:59:27.581Z,15.83
2018-12-31T04:01:56.929Z,15.73
2018-12-31T04:04:26.178Z,15.70
2018-12-31T04:06:55.456Z,16.23
2018-12-31T04:09:24.762Z,15.90
2018-12-31T04:11:53.978Z,18.27
2018-12-31T04:14:23.302Z,17.93
2018-12-31T04:16:52.651Z,17.53
2018-12-31T04:19:21.938Z,17.10
2018-12-31T04:21:51.212Z,16.77
2018-12-31T04:24:20.482Z,16.47
2018-12-31T04:26:49.782Z,17.33
2018-12-31T04:29:19.018Z,18.03
2018-12-31T04:31:48.262Z,18.47
2018-12-31T04:34:17.547Z,18.77
2018-12-31T04:36:46.822Z,18.90
2018-12-31T04:39:16.142Z,18.80
2018-12-31T04:41:45.410Z,17.27
2018-12-31T04:44:14.686Z,17.53
2018-12-31T04:46:44.006Z,16.63
2018-12-31T04:49:13.273Z,17.50
2018-12-31T04:51:42.566Z,18.20
2018-12-31T04:54:11.938Z,17.73
2018-12-31T04:56:41.211Z,17.40
2018-12-31T04:59:10.435Z,17.40
2018-12-31T05:01:39.753Z,18.33
2018-12-31T05:04:08.989Z,18.13
2018-12-31T05:06:38.315Z,17.93
2018-12-31T05:09:07.779Z,18.77
2018-12-31T05:11:37.115Z,17.47
2018-12-31T05:14:06.382Z,17.70
2018-12-31T05:16:35.665Z,16.73
2018-12-31T05:19:04.998Z,15.93
2018-12-31T05:21:34.366Z,17.90
2018-12-31T05:24:03.642Z,18.00
2018-12-31T05:26:32.911Z,18.00
2018-12-31T05:29:02.273Z,17.67
2018-12-31T05:31:31.547Z,19.77
2018-12-31T05:34:00.893Z,17.90
2018-12-31T05:36:30.149Z,18.03
2018-12-31T05:38:59.446Z,18.50
2018-12-31T05:41:28.727Z,18.60
2018-12-31T05:43:57.995Z,18.30
2018-12-31T05:46:27.335Z,19.30
2018-12-31T05:48:56.612Z,18.60
2018-12-31T05:51:25.965Z,19.00
2018-12-31T05:53:55.234Z,19.20
2018-12-31T05:56:24.524Z,18.70
2018-12-31T05:58:53.840Z,21.73
2018-12-31T06:01:23.034Z,21.10
2018-12-31T06:03:52.307Z,20.77
2018-12-31T06:06:21.702Z,22.57
2018-12-31T06:08:50.974Z,20.37
2018-12-31T06:11:20.153Z,21.57
2018-12-31T06:13:49.598Z,22.13
2018-12-31T06:16:18.838Z,21.97
2018-12-31T06:18:48.192Z,20.27
2018-12-31T06:21:17.542Z,23.23
2018-12-31T06:23:46.727Z,20.23
2018-12-31T06:26:15.997Z,21.87
2018-12-31T06:28:45.329Z,20.57
2018-12-31T06:31:14.621Z,21.13
2018-12-31T06:33:43.874Z,19.57
2018-12-31T06:36:13.126Z,20.63
2018-12-31T06:38:42.404Z,20.03
2018-12-31T06:41:11.650Z,22.97
2018-12-31T06:43:40.932Z,22.17
2018-12-31T06:46:10.479Z,22.23
2018-12-31T06:48:39.843Z,22.90
2018-12-31T06:51:09.177Z,22.00
2018-12-31T06:53:38.483Z,23.43
2018-12-31T06:56:07.767Z,22.77
2018-12-31T06:58:37.065Z,23.13
2018-12-31T07:01:06.346Z,25.37
2018-12-31T07:03:35.544Z,22.63
2018-12-31T07:06:04.834Z,25.60
2018-12-31T07:08:34.215Z,24.03
2018-12-31T07:11:03.482Z,24.10
2018-12-31T07:13:32.850Z,22.80
2018-12-31T07:16:02.158Z,24.00
2018-12-31T07:18:31.550Z,22.73
2018-12-31T07:21:00.849Z,22.43
2018-12-31T07:23:30.079Z,23.43
2018-12-31T07:25:59.425Z,24.57
2018-12-31T07:28:28.790Z,21.43
2018-12-31T07:30:58.016Z,24.17
2018-12-31T07:33:27.468Z,21.90
2018-12-31T07:35:56.731Z,23.10
2018-12-31T07:38:26.024Z,23.37
2018-12-31T07:40:55.380Z,22.00
2018-12-31T07:43:24.638Z,23.73
2018-12-31T07:45:53.961Z,21.60
2018-12-31T07:48:23.202Z,22.43
2018-12-31T07:50:52.522Z,22.80
2018-12-31T07:53:21.833Z,22.83
2018-12-31T07:55:51.237Z,23.50
2018-12-31T07:58:20.674Z,23.60
2018-12-31T08:00:50.037Z,24.53
2018-12-31T08:03:19.353Z,24.07
2018-12-31T08:05:48.630Z,24.77
2018-12-31T08:08:17.901Z,22.90
2018-12-31T08:10:47.154Z,22.20
2018-12-31T08:13:16.402Z,23.13
2018-12-31T08:15:45.720Z,23.10
2018-12-31T08:18:15.032Z,23.87
2018-12-31T08:20:44.318Z,22.57
2018-12-31T08:23:13.662Z,22.47
2018-12-31T08:25:42.947Z,23.37
2018-12-31T08:28:12.292Z,21.80
2018-12-31T08:30:41.694Z,22.43
2018-12-31T08:33:11.031Z,22.37
2018-12-31T08:35:40.362Z,23.00
2018-12-31T08:38:09.624Z,21.00
2018-12-31T08:40:38.873Z,21.53
2018-12-31T08:43:08.203Z,20.90
2018-12-31T08:45:37.502Z,21.80
2018-12-31T08:48:06.828Z,22.80
2018-12-31T08:50:36.149Z,22.77
2018-12-31T08:53:05.414Z,23.00
2018-12-31T08:55:34.770Z,21.33
2018-12-31T08:58:04.243Z,21.97
2018-12-31T09:00:33.658Z,24.63
2018-12-31T09:03:03.072Z,24.47
2018-12-31T09:05:32.382Z,22.80
2018-12-31T09:08:01.728Z,24.30
2018-12-31T09:10:31.154Z,25.30
2018-12-31T09:13:00.412Z,22.13
2018-12-31T09:15:29.783Z,23.60
2018-12-31T09:17:59.109Z,22.63
2018-12-31T09:20:28.658Z,23.60
2018-12-31T09:22:58.000Z,23.20
2018-12-31T09:25:27.340Z,21.60
2018-12-31T09:27:56.638Z,23.17
2018-12-31T09:30:26.052Z,22.17
2018-12-31T09:32:55.473Z,22.33
2018-12-31T09:35:24.882Z,22.73
2018-12-31T09:37:54.173Z,22.53
2018-12-31T09:40:23.710Z,21.40
2018-12-31T09:42:52.998Z,22.30
2018-12-31T09:45:22.371Z,20.07
2018-12-31T09:47:51.674Z,19.07
2018-12-31T09:50:21.065Z,21.80
2018-12-31T09:52:50.546Z,21.73
2018-12-31T09:55:19.874Z,20.63
2018-12-31T09:57:49.220Z,21.03
2018-12-31T10:00:18.652Z,19.07
2018-12-31T10:02:48.033Z,19.30
2018-12-31T10:05:17.355Z,16.97
2018-12-31T10:07:46.605Z,18.40
2018-12-31T10:10:15.977Z,17.47
2018-12-31T10:12:45.367Z,15.87
2018-12-31T10:15:15.061Z,15.33
2018-12-31T10:17:44.229Z,14.87
2018-12-31T10:20:13.498Z,13.70
2018-12-31T10:22:42.721Z,14.33
2018-12-31T10:25:12.146Z,13.87
2018-12-31T10:27:41.435Z,14.43
2018-12-31T10:30:10.745Z,13.77
2018-12-31T10:32:40.090Z,15.87
2018-12-31T10:35:09.366Z,15.43
2018-12-31T10:37:38.746Z,18.07
2018-12-31T10:40:09.097Z,15.97
2018-12-31T10:42:38.452Z,16.23
2018-12-31T10:45:07.758Z,16.37
2018-12-31T10:47:37.100Z,16.43
2018-12-31T10:50:07.862Z,16.13
2018-12-31T10:52:37.195Z,15.53
2018-12-31T10:55:06.955Z,16.70
2018-12-31T10:57:36.405Z,17.13
2018-12-31T11:00:06.606Z,16.50
2018-12-31T11:02:36.019Z,16.80
2018-12-31T11:05:05.540Z,16.37
2018-12-31T11:07:34.849Z,15.67
2018-12-31T11:10:04.861Z,16.23
2018-12-31T11:12:34.168Z,16.27
2018-12-31T11:15:03.678Z,14.83
2018-12-31T11:17:33.092Z,13.30
2018-12-31T11:20:02.521Z,11.37
2018-12-31T11:22:31.964Z,11.83
2018-12-31T11:25:01.291Z,11.00
2018-12-31T11:27:30.658Z,10.53
2018-12-31T11:29:59.942Z,10.57
2018-12-31T11:32:29.228Z,11.97
2018-12-31T11:34:58.606Z,10.87
2018-12-31T11:37:34.410Z,12.80
2018-12-31T11:39:58.850Z,12.43
2018-12-31T11:42:28.292Z,13.53
2018-12-31T11:44:57.591Z,12.80
2018-12-31T11:47:27.796Z,14.30
2018-12-31T11:49:57.060Z,13.50
2018-12-31T11:52:26.359Z,12.73
2018-12-31T11:54:55.642Z,13.97
2018-12-31T11:57:24.940Z,12.50
2018-12-31T11:59:55.677Z,13.23
2018-12-31T12:02:25.010Z,12.17
2018-12-31T12:04:54.596Z,13.83
2018-12-31T12:07:23.962Z,16.47
2018-12-31T12:09:53.358Z,16.17
2018-12-31T12:12:22.810Z,14.10
2018-12-31T12:14:52.194Z,14.00
2018-12-31T12:17:21.637Z,13.00
2018-12-31T12:19:50.971Z,13.33
2018-12-31T12:22:20.293Z,14.37
2018-12-31T12:24:51.216Z,13.47
2018-12-31T12:27:20.651Z,12.43
2018-12-31T12:29:49.939Z,12.43
2018-12-31T12:32:19.294Z,12.33
2018-12-31T12:34:48.594Z,10.53
2018-12-31T12:37:18.057Z,12.13
2018-12-31T12:39:47.332Z,11.03
2018-12-31T12:42:16.814Z,10.80
2018-12-31T12:44:46.079Z,11.30
2018-12-31T12:47:16.827Z,11.93
2018-12-31T12:49:46.105Z,9.63
2018-12-31T12:52:15.474Z,11.43
2018-12-31T12:54:46.892Z,11.13
2018-12-31T12:57:16.311Z,8.30
2018-12-31T12:59:46.041Z,11.13
2018-12-31T13:02:15.348Z,16.30
2018-12-31T13:04:44.633Z,14.37
2018-12-31T13:07:13.912Z,8.70
2018-12-31T13:09:43.191Z,7.20
2018-12-31T13:12:13.579Z,7.23
2018-12-31T13:14:42.872Z,7.07
2018-12-31T13:17:12.213Z,8.60
2018-12-31T13:19:41.531Z,9.13
2018-12-31T13:22:10.905Z,8.33
2018-12-31T13:24:40.174Z,10.23
2018-12-31T13:27:09.470Z,10.13
2018-12-31T13:29:38.832Z,8.63
2018-12-31T13:32:08.192Z,7.10
2018-12-31T13:34:37.530Z,6.87
2018-12-31T13:37:06.856Z,7.27
2018-12-31T13:39:36.062Z,6.33
2018-12-31T13:42:05.351Z,5.83
2018-12-31T13:44:34.660Z,6.53
2018-12-31T13:47:03.917Z,11.10
2018-12-31T13:49:33.317Z,9.10
2018-12-31T13:52:02.685Z,11.50
2018-12-31T13:54:31.935Z,8.87
2018-12-31T13:57:01.202Z,7.37
2018-12-31T13:59:30.740Z,6.10
2018-12-31T14:02:00.035Z,10.07
2018-12-31T14:04:29.280Z,6.83
2018-12-31T14:06:58.597Z,5.90
2018-12-31T14:09:27.965Z,5.07
2018-12-31T14:11:57.514Z,5.17
2018-12-31T14:14:26.858Z,5.53
2018-12-31T14:16:56.202Z,4.77
2018-12-31T14:19:25.475Z,6.57
2018-12-31T14:21:54.750Z,6.33
2018-12-31T14:24:24.024Z,5.90
2018-12-31T14:27:00.334Z,5.73
2018-12-31T14:29:24.224Z,19.27
2018-12-31T14:31:53.526Z,8.90
2018-12-31T14:34:22.788Z,5.50
2018-12-31T14:36:52.159Z,5.97
2018-12-31T14:39:21.439Z,6.37
2018-12-31T14:41:50.756Z,6.73
2018-12-31T14:44:20.035Z,10.47
2018-12-31T14:46:49.370Z,8.07
2018-12-31T14:49:18.606Z,7.30
2018-12-31T14:51:48.010Z,5.40
2018-12-31T14:54:17.281Z,5.63
2018-12-31T14:56:46.741Z,5.43
2018-12-31T14:59:16.001Z,6.00
2018-12-31T15:01:45.281Z,5.07
2018-12-31T15:04:14.642Z,5.20
2018-12-31T15:06:43.957Z,4.87
2018-12-31T15:09:13.269Z,5.23
2018-12-31T15:11:42.994Z,6.10
2018-12-31T15:14:12.299Z,6.10
2018-12-31T15:16:41.555Z,5.57
2018-12-31T15:19:10.847Z,5.97
2018-12-31T15:21:40.281Z,9.37
2018-12-31T15:24:09.945Z,10.50
2018-12-31T15:26:39.234Z,13.00
2018-12-31T15:29:08.496Z,14.53
2018-12-31T15:31:37.865Z,9.67
2018-12-31T15:34:07.160Z,9.60
2018-12-31T15:36:36.690Z,10.97
2018-12-31T15:39:07.687Z,7.57
2018-12-31T15:41:36.934Z,8.63
2018-12-31T15:44:06.329Z,7.87
2018-12-31T15:46:35.578Z,9.53
2018-12-31T15:49:04.845Z,12.17
2018-12-31T15:51:34.153Z,13.07
2018-12-31T15:54:03.577Z,12.67
2018-12-31T15:56:32.926Z,11.80
2018-12-31T15:59:02.281Z,12.77
2018-12-31T16:01:31.590Z,12.13
2018-12-31T16:04:00.882Z,17.07
2018-12-31T16:06:30.145Z,15.30
2018-12-31T16:08:59.442Z,16.57
2018-12-31T16:11:28.715Z,16.33
2018-12-31T16:13:58.007Z,16.50
2018-12-31T16:16:27.336Z,17.80
2018-12-31T16:18:56.731Z,18.77
2018-12-31T16:21:26.058Z,17.87
2018-12-31T16:23:55.321Z,23.33
2018-12-31T16:26:24.649Z,24.20
2018-12-31T16:28:53.958Z,25.27
2018-12-31T16:31:23.293Z,21.43
2018-12-31T16:33:52.646Z,18.93
2018-12-31T16:36:21.987Z,20.93
2018-12-31T16:38:51.340Z,18.87
2018-12-31T16:41:20.725Z,20.67
2018-12-31T16:43:50.188Z,20.17
2018-12-31T16:46:19.492Z,22.23
2018-12-31T16:48:48.865Z,22.90
2018-12-31T16:51:18.169Z,19.63
2018-12-31T16:53:47.474Z,18.30
2018-12-31T16:56:16.751Z,18.93
2018-12-31T16:58:46.081Z,22.43
2018-12-31T17:01:15.501Z,22.90
2018-12-31T17:03:44.724Z,21.27
2018-12-31T17:06:14.026Z,23.57
2018-12-31T17:08:43.291Z,21.70
2018-12-31T17:11:12.624Z,20.27
2018-12-31T17:13:41.893Z,21.27
2018-12-31T17:16:11.146Z,20.27
2018-12-31T17:18:40.445Z,22.67
2018-12-31T17:21:09.713Z,19.20
2018-12-31T17:23:39.081Z,16.67
2018-12-31T17:26:08.445Z,15.50
2018-12-31T17:28:37.758Z,17.10
2018-12-31T17:31:07.175Z,23.33
2018-12-31T17:33:36.711Z,21.23
2018-12-31T17:36:06.088Z,18.93
2018-12-31T17:38:35.330Z,18.43
2018-12-31T17:41:04.601Z,16.80
2018-12-31T17:43:33.874Z,16.27
2018-12-31T17:46:03.159Z,17.23
2018-12-31T17:48:32.472Z,15.87
2018-12-31T17:51:01.761Z,13.80
2018-12-31T17:53:31.088Z,557.63
2018-12-31T17:56:00.470Z,61.67
2018-12-31T17:58:29.741Z,508.13
2018-12-31T18:00:59.137Z,408.97
2018-12-31T18:03:28.451Z,28.73
2018-12-31T18:05:57.739Z,56.33
2018-12-31T18:08:27.015Z,32.33
2018-12-31T18:10:56.265Z,125.90
2018-12-31T18:13:25.554Z,215.13
2018-12-31T18:15:54.931Z,103.90
2018-12-31T18:18:24.273Z,99.97
2018-12-31T18:20:53.574Z,118.17
2018-12-31T18:23:22.838Z,55.23
2018-12-31T18:25:52.145Z,22.23
2018-12-31T18:28:21.401Z,102.30
2018-12-31T18:30:50.774Z,94.53
2018-12-31T18:33:20.122Z,86.90
2018-12-31T18:35:49.378Z,273.63
2018-12-31T18:38:18.824Z,115.17
2018-12-31T18:40:48.092Z,427.57
2018-12-31T18:43:17.494Z,165.30
2018-12-31T18:45:46.824Z,186.73
2018-12-31T18:48:16.174Z,347.97
2018-12-31T18:50:45.473Z,55.53
2018-12-31T18:53:14.754Z,95.63
2018-12-31T18:55:44.141Z,100.47
2018-12-31T18:58:13.442Z,125.07
2018-12-31T19:00:42.774Z,101.80
2018-12-31T19:03:12.109Z,102.07
2018-12-31T19:05:41.493Z,284.83
2018-12-31T19:08:10.806Z,104.60
2018-12-31T19:10:40.152Z,68.23
2018-12-31T19:13:09.530Z,21.47
2018-12-31T19:15:38.897Z,24.60
2018-12-31T19:18:08.261Z,19.03
2018-12-31T19:20:37.551Z,17.57
2018-12-31T19:23:06.885Z,16.57
2018-12-31T19:25:36.269Z,16.53
2018-12-31T19:28:05.572Z,18.87
2018-12-31T19:30:34.827Z,16.77
2018-12-31T19:33:04.114Z,16.03
2018-12-31T19:35:33.390Z,28.07
2018-12-31T19:38:02.751Z,38.13
2018-12-31T19:40:32.092Z,24.30
2018-12-31T19:43:01.555Z,19.27
2018-12-31T19:45:30.869Z,19.90
2018-12-31T19:48:00.123Z,20.20
2018-12-31T19:50:29.513Z,32.33
2018-12-31T19:52:59.010Z,25.23
2018-12-31T19:55:28.337Z,26.40
2018-12-31T19:57:57.704Z,23.67
2018-12-31T20:00:26.983Z,21.97
2018-12-31T20:02:56.248Z,20.93
2018-12-31T20:05:25.582Z,21.00
2018-12-31T20:07:54.850Z,21.47
2018-12-31T20:10:24.177Z,19.90
2018-12-31T20:12:53.511Z,17.50
2018-12-31T20:15:22.751Z,18.13
2018-12-31T20:17:52.129Z,15.87
2018-12-31T20:20:21.396Z,15.77
2018-12-31T20:22:50.719Z,18.40
2018-12-31T20:25:20.004Z,23.70
2018-12-31T20:27:49.271Z,16.43
2018-12-31T20:30:18.612Z,16.50
2018-12-31T20:32:47.929Z,19.47
2018-12-31T20:35:17.635Z,17.80
2018-12-31T20:37:46.881Z,18.40
2018-12-31T20:40:16.241Z,29.37
2018-12-31T20:42:45.501Z,23.57
2018-12-31T20:45:15.004Z,21.43
2018-12-31T20:47:44.358Z,25.40
2018-12-31T20:50:13.653Z,28.40
2018-12-31T20:52:43.003Z,23.57
2018-12-31T20:55:12.278Z,22.90
2018-12-31T20:57:41.623Z,27.27
2018-12-31T21:00:10.906Z,18.47
2018-12-31T21:02:40.192Z,15.57
2018-12-31T21:05:11.411Z,14.07
2018-12-31T21:07:40.394Z,14.30
2018-12-31T21:10:10.907Z,14.40
2018-12-31T21:12:40.397Z,13.73
2018-12-31T21:15:09.838Z,14.43
2018-12-31T21:17:39.154Z,16.70
2018-12-31T21:20:08.995Z,14.53
2018-12-31T21:22:38.266Z,43.73
2018-12-31T21:25:07.556Z,23.13
2018-12-31T21:27:36.852Z,18.47
2018-12-31T21:30:08.530Z,16.37
2018-12-31T21:32:37.877Z,15.50
2018-12-31T21:35:07.782Z,18.27
2018-12-31T21:37:37.068Z,16.93
2018-12-31T21:40:08.441Z,19.87
2018-12-31T21:42:37.685Z,16.10
2018-12-31T21:45:06.956Z,14.67
2018-12-31T21:47:37.945Z,13.57
2018-12-31T21:50:07.511Z,15.90
2018-12-31T21:52:36.895Z,14.13
2018-12-31T21:55:06.518Z,13.70
2018-12-31T21:57:35.782Z,14.07
2018-12-31T22:00:06.350Z,11.17
2018-12-31T22:02:35.740Z,15.77
2018-12-31T22:05:05.108Z,13.80
2018-12-31T22:07:34.404Z,13.03
2018-12-31T22:10:03.762Z,13.00
2018-12-31T22:12:33.049Z,13.37
2018-12-31T22:15:02.318Z,9.53
2018-12-31T22:17:31.661Z,9.73
2018-12-31T22:20:00.987Z,8.93
2018-12-31T22:22:30.249Z,8.80
2018-12-31T22:25:01.187Z,10.50
2018-12-31T22:27:31.983Z,9.73
2018-12-31T22:30:01.256Z,10.03
2018-12-31T22:32:30.527Z,9.10
2018-12-31T22:34:59.766Z,8.57
2018-12-31T22:37:29.072Z,8.53
2018-12-31T22:39:58.322Z,9.77
2018-12-31T22:42:27.664Z,12.10
2018-12-31T22:44:57.029Z,11.17
2018-12-31T22:47:26.270Z,18.63
2018-12-31T22:49:55.567Z,13.77
2018-12-31T22:52:24.890Z,24.17
2018-12-31T22:54:54.255Z,31.10
2018-12-31T22:57:23.722Z,37.53
2018-12-31T22:59:52.989Z,52.07
2018-12-31T23:02:22.335Z,54.53
2018-12-31T23:04:52.094Z,95.83
2018-12-31T23:07:21.490Z,207.77
2018-12-31T23:09:50.867Z,317.20
2018-12-31T23:12:20.287Z,271.17
2018-12-31T23:14:49.583Z,375.03
2018-12-31T23:17:19.630Z,342.97
2018-12-31T23:19:48.929Z,205.57
2018-12-31T23:22:18.340Z,237.60
2018-12-31T23:24:47.680Z,268.73
2018-12-31T23:27:17.047Z,209.63
2018-12-31T23:29:46.633Z,192.50
2018-12-31T23:32:15.950Z,155.50
2018-12-31T23:34:45.199Z,88.93
2018-12-31T23:37:14.513Z,110.97
2018-12-31T23:39:43.805Z,80.77
2018-12-31T23:42:13.430Z,55.67
2018-12-31T23:44:42.772Z,44.47
2018-12-31T23:47:12.086Z,37.37
2018-12-31T23:49:41.419Z,32.93
2018-12-31T23:52:10.738Z,31.83
2018-12-31T23:54:40.414Z,30.40
2018-12-31T23:57:10.111Z,21.20
2018-12-31T23:59:39.461Z,18.57
